首页
METAR-TAF:

METAR-TAF

机场 :

迪拜国际机场

杜拜, 阿拉伯联合酋长国

纬度: 25-15-10N, 经度: 055-21-52E, 海拔: 8米

当前天气观测

该预报发布于46分钟前的08:00 UTC
风速8节,风向西北,在西之间变化
温度 38°C
湿度 64%
气压 995 hPa
能見度: 8000

METAR: OMDB 140800Z 31008KT 270V010 8000 NSC 38/30 Q0995 NOSIG

时间: 12:46 (08:46 UTC)

预报

该预报发布于3小时和44分钟前的05:02 UTC
预报有效从14日的 06点(UTC)到 15日的 12点(UTC)
风速5节,风向南转西南
能見度: 8000
成为
从 14日的 06点(UTC)到 14日的 08点(UTC)
风速10节,风向北转西北
成为
从 14日的 15点(UTC)到 14日的 17点(UTC)
风速2节,风向多变
成为
从 15日的 07点(UTC)到 15日的 09点(UTC)
风速10节,风向北转西北

TAF: OMDB 140502Z 1406/1512 20005KT 8000 NSC BECMG 1406/1408 34010KT BECMG 1415/1417 VRB02KT BECMG 1507/1509 33010KT

超过4000个机场的气象观测和天气预报(METAR&TAF报告)。

可查询的气象台以黄色和红色小点在地图上表示。

将鼠标移到小点上方,可查看气象台名称。

然后点击查看天气观测和预报。

如需切换地图:点击带黑十字的绿色按钮放大地图;点击带横线的绿色按钮缩小地图;或者点击绿色箭头查看邻近地区的地图。


METAR-TAF: